Time;durP1;ratioP1;P1;durP2;ratioP2;P2;SDS_P1;SDS_P2;PMS_P1;PMS_P2;Temp;Humidity;BMP_temperature;BMP_pressure;BME280_temperature;BME280_humidity;BME280_pressure;Samples;Min_cycle;Max_cycle;Signal;HPM_P1;HPM_P2
2022/09/27 00:00:27;;;;;;;15.40;9.88;;;;;;;16.46;100.00;96678.94;5100732;27;20070;-88
2022/09/27 00:02:52;;;;;;;16.20;10.57;;;;;;;16.48;100.00;96691.31;5100405;27;20061;-88
2022/09/27 00:05:18;;;;;;;18.30;9.25;;;;;;;16.48;100.00;96695.88;5099935;27;20089;-88
2022/09/27 00:07:44;;;;;;;14.90;8.73;;;;;;;16.38;100.00;96679.72;5100554;27;20065;-88
2022/09/27 00:10:11;;;;;;;13.50;8.02;;;;;;;16.40;100.00;96688.50;5100283;27;20091;-88
2022/09/27 00:12:37;;;;;;;10.63;8.05;;;;;;;16.26;100.00;96664.75;5100238;27;20019;-88
2022/09/27 00:15:04;;;;;;;11.27;7.55;;;;;;;16.43;100.00;96677.41;5117542;27;20019;-88
2022/09/27 00:17:29;;;;;;;14.93;7.53;;;;;;;16.30;100.00;96651.81;5100644;27;20034;-87
2022/09/27 00:19:57;;;;;;;12.60;8.25;;;;;;;16.39;100.00;96653.59;5100613;27;20023;-87
2022/09/27 00:22:24;;;;;;;10.80;7.15;;;;;;;16.39;100.00;96648.19;5100199;27;20509;-87
2022/09/27 00:24:50;;;;;;;12.05;7.38;;;;;;;16.45;100.00;96669.19;5100380;27;20023;-87
2022/09/27 00:27:16;;;;;;;12.52;7.40;;;;;;;16.47;100.00;96670.72;5117031;27;20109;-86
2022/09/27 00:29:42;;;;;;;10.43;7.45;;;;;;;16.33;100.00;96654.19;5100013;27;20047;-87
2022/09/27 00:32:08;;;;;;;12.57;7.55;;;;;;;16.37;100.00;96648.31;5100116;27;20030;-87
2022/09/27 00:34:34;;;;;;;17.20;8.57;;;;;;;16.29;100.00;96653.66;5099908;27;20486;-87
2022/09/27 00:36:59;;;;;;;12.30;7.93;;;;;;;16.35;100.00;96662.97;5100055;27;20031;-87
2022/09/27 00:39:25;;;;;;;13.82;8.40;;;;;;;16.23;100.00;96640.75;5117275;27;20031;-88
2022/09/27 00:41:51;;;;;;;13.55;8.55;;;;;;;16.33;100.00;96665.00;5099867;27;20024;-88
2022/09/27 00:44:26;;;;;;;14.65;7.95;;;;;;;16.37;100.00;96675.31;5100738;27;20027;-88
2022/09/27 00:47:06;;;;;;;12.07;8.15;;;;;;;16.45;100.00;96691.63;5117851;27;20031;-88
2022/09/27 00:49:52;;;;;;;10.57;8.25;;;;;;;16.50;100.00;96694.72;5117791;27;20032;-88
2022/09/27 00:52:24;;;;;;;12.77;7.60;;;;;;;16.49;100.00;96690.28;5099788;27;20390;-88
2022/09/27 00:55:00;;;;;;;13.70;8.57;;;;;;;16.36;100.00;96692.53;5099869;27;20042;-89
2022/09/27 00:57:27;;;;;;;17.58;8.93;;;;;;;16.26;100.00;96671.00;5099759;27;20135;-89
2022/09/27 01:00:06;;;;;;;12.75;8.52;;;;;;;16.36;100.00;96679.03;5117210;27;20114;-87
2022/09/27 01:02:34;;;;;;;12.88;8.65;;;;;;;16.43;100.00;96688.22;5099892;27;20521;-87
2022/09/27 01:05:07;;;;;;;14.55;7.97;;;;;;;16.24;100.00;96650.56;5100670;27;20038;-88
2022/09/27 01:07:33;;;;;;;15.55;8.77;;;;;;;16.23;100.00;96648.88;5117542;27;20506;-88
2022/09/27 01:09:59;;;;;;;14.00;8.75;;;;;;;16.40;100.00;96660.66;5117090;27;20114;-88
2022/09/27 01:12:49;;;;;;;13.32;7.75;;;;;;;16.41;100.00;96663.22;5116770;27;20411;-87
2022/09/27 01:15:20;;;;;;;15.30;9.27;;;;;;;16.30;100.00;96660.75;5099567;27;20088;-87
2022/09/27 01:18:14;;;;;;;15.30;8.82;;;;;;;16.24;100.00;96670.28;5117361;27;20034;-87
2022/09/27 01:21:07;;;;;;;14.63;9.23;;;;;;;16.16;100.00;96672.91;5133968;27;20478;-87
2022/09/27 01:23:47;;;;;;;12.77;9.35;;;;;;;16.25;100.00;96693.56;5134562;27;20023;-87
2022/09/27 01:26:50;;;;;;;14.38;8.73;;;;;;;16.11;100.00;96677.06;5098555;27;20604;-87
2022/09/27 01:29:24;;;;;;;;;;;;;;;16.12;100.00;96670.63;5133845;27;20050;-87
2022/09/27 01:32:14;;;;;;;14.40;8.70;;;;;;;16.02;100.00;96667.16;5116449;27;19937;-87
2022/09/27 01:34:57;;;;;;;14.68;8.80;;;;;;;15.94;100.00;96649.03;5099539;27;20122;-87
2022/09/27 01:37:34;;;;;;;15.93;9.63;;;;;;;15.98;100.00;96652.28;5099158;27;20070;-87
2022/09/27 01:40:10;;;;;;;13.80;9.10;;;;;;;16.00;100.00;96658.34;5115894;27;20039;-88
2022/09/27 01:42:46;;;;;;;14.07;9.85;;;;;;;16.00;100.00;96671.84;5115975;27;20029;-88
2022/09/27 01:45:27;;;;;;;17.15;10.95;;;;;;;16.01;100.00;96660.06;5099310;27;20035;-88
2022/09/27 01:47:56;;;;;;;17.10;10.65;;;;;;;15.83;100.00;96642.97;5134790;27;20026;-88
2022/09/27 01:50:36;;;;;;;19.60;11.45;;;;;;;15.80;100.00;96640.59;5098822;27;20019;-89
2022/09/27 01:53:28;;;;;;;16.20;11.20;;;;;;;15.80;100.00;96635.19;5099098;27;20019;-88
2022/09/27 01:55:54;;;;;;;24.17;13.33;;;;;;;15.87;100.00;96644.38;5099132;27;20122;-87
2022/09/27 01:58:25;;;;;;;23.10;14.73;;;;;;;15.88;100.00;96655.00;5099390;27;20509;-87
2022/09/27 02:00:53;;;;;;;21.95;12.88;;;;;;;15.93;100.00;96668.06;5099202;27;20096;-88
2022/09/27 02:03:32;;;;;;;18.45;11.52;;;;;;;15.93;100.00;96657.28;5099239;27;20209;-88
2022/09/27 02:06:02;;;;;;;16.27;11.27;;;;;;;15.90;100.00;96646.78;5115993;27;20026;-88
2022/09/27 02:08:41;;;;;;;22.27;11.57;;;;;;;15.95;100.00;96644.47;5099004;27;20490;-88
2022/09/27 02:11:12;;;;;;;17.80;11.45;;;;;;;16.01;100.00;96633.09;5116031;27;20030;-88
2022/09/27 02:13:43;;;;;;;19.92;11.60;;;;;;;16.01;100.00;96625.84;5099003;27;20023;-87
2022/09/27 02:16:39;;;;;;;23.98;12.43;;;;;;;16.02;100.00;96629.41;5116114;28;20023;-87
2022/09/27 02:19:08;;;;;;;20.25;12.52;;;;;;;16.01;100.00;96630.38;5133554;27;20052;-87
2022/09/27 02:22:04;;;;;;;23.67;12.55;;;;;;;16.03;100.00;96620.28;5116068;27;20114;-87
2022/09/27 02:24:58;;;;;;;21.77;12.65;;;;;;;15.99;100.00;96610.81;5098891;27;20023;-87
2022/09/27 02:27:28;;;;;;;18.95;11.73;;;;;;;15.91;100.00;96621.50;5133186;27;20110;-87
2022/09/27 02:30:10;;;;;;;20.88;11.95;;;;;;;15.89;100.00;96601.94;5099244;28;20058;-87
2022/09/27 02:32:36;;;;;;;21.45;12.02;;;;;;;15.92;100.00;96612.41;5100175;28;20547;-87
2022/09/27 02:35:09;;;;;;;19.33;11.63;;;;;;;15.86;100.00;96596.84;5099929;28;20035;-88
2022/09/27 02:37:35;;;;;;;22.08;12.65;;;;;;;15.85;100.00;96587.88;5101377;27;20132;-87
2022/09/27 02:40:03;;;;;;;23.13;12.50;;;;;;;15.82;100.00;96584.66;5103141;27;20127;-88
2022/09/27 02:42:30;;;;;;;20.45;12.18;;;;;;;15.86;100.00;96588.75;5103493;27;20027;-88
2022/09/27 02:44:55;;;;;;;21.48;13.00;;;;;;;15.81;100.00;96593.75;5102768;27;20440;-87
2022/09/27 02:47:24;;;;;;;21.52;12.90;;;;;;;15.86;100.00;96594.13;5119024;27;20031;-88
2022/09/27 02:50:17;;;;;;;21.05;12.13;;;;;;;15.85;100.00;96584.34;5136867;27;20042;-88
2022/09/27 02:53:11;;;;;;;19.65;12.27;;;;;;;15.79;100.00;96566.94;5136265;27;20037;-88
2022/09/27 02:56:00;;;;;;;21.77;13.18;;;;;;;15.68;100.00;96549.13;5136733;27;20027;-87
2022/09/27 02:59:06;;;;;;;22.23;13.25;;;;;;;15.70;100.00;96543.56;5119724;27;20508;-87
2022/09/27 03:01:59;;;;;;;22.95;14.63;;;;;;;15.78;100.00;96562.53;5079686;27;20039;-88
2022/09/27 03:04:34;;;;;;;26.40;15.27;;;;;;;15.69;100.00;96564.28;5136565;27;20088;-87
2022/09/27 03:07:00;;;;;;;36.97;17.10;;;;;;;15.85;100.00;96574.41;5118892;27;20030;-88
2022/09/27 03:09:42;;;;;;;23.90;14.30;;;;;;;15.79;100.00;96552.59;5119071;27;20023;-88
2022/09/27 03:12:07;;;;;;;20.98;15.13;;;;;;;15.80;100.00;96554.28;5102908;27;20041;-88
2022/09/27 03:14:33;;;;;;;22.73;14.40;;;;;;;15.84;100.00;96556.56;5102330;27;20020;-88
2022/09/27 03:16:58;;;;;;;24.33;13.10;;;;;;;15.71;100.00;96548.81;5102288;27;20095;-86
2022/09/27 03:19:24;;;;;;;21.42;13.00;;;;;;;15.79;100.00;96557.97;5101703;27;20026;-87
2022/09/27 03:21:50;;;;;;;20.85;13.15;;;;;;;15.82;100.00;96568.47;5119996;27;20030;-86
2022/09/27 03:24:15;;;;;;;21.27;12.85;;;;;;;15.71;100.00;96542.56;5120004;27;20130;-86
2022/09/27 03:26:41;;;;;;;24.23;14.23;;;;;;;15.60;100.00;96524.75;5101687;27;20030;-87
2022/09/27 03:29:06;;;;;;;18.05;12.25;;;;;;;15.67;100.00;96533.94;5101699;27;20407;-88
2022/09/27 03:31:32;;;;;;;20.02;12.07;;;;;;;15.63;100.00;96515.50;5102445;27;20067;-88
2022/09/27 03:33:57;;;;;;;20.42;11.43;;;;;;;15.59;100.00;96504.19;5101896;27;20024;-86
2022/09/27 03:36:23;;;;;;;20.15;11.38;;;;;;;15.56;100.00;96495.56;5102430;27;20079;-88
2022/09/27 03:38:49;;;;;;;25.58;13.00;;;;;;;15.54;100.00;96490.31;5101849;27;20041;-87
2022/09/27 03:41:14;;;;;;;24.38;13.55;;;;;;;15.63;100.00;96492.09;5104119;27;20419;-87
2022/09/27 03:43:40;;;;;;;19.67;12.70;;;;;;;15.71;100.00;96481.41;5119282;27;20079;-86
2022/09/27 03:46:05;;;;;;;19.42;11.80;;;;;;;15.59;100.00;96471.84;5101860;27;20490;-87
2022/09/27 03:48:31;;;;;;;23.27;11.45;;;;;;;15.57;100.00;96457.66;5100400;27;20026;-88
2022/09/27 03:50:57;;;;;;;27.25;12.55;;;;;;;15.62;100.00;96466.16;5102557;27;20031;-88
2022/09/27 03:53:22;;;;;;;21.58;12.75;;;;;;;15.63;100.00;96470.53;5101165;27;20083;-86
2022/09/27 03:55:48;;;;;;;22.70;12.75;;;;;;;15.62;100.00;96466.16;5101738;27;20531;-87
2022/09/27 03:58:16;;;;;;;25.20;15.65;;;;;;;15.62;100.00;96466.16;5101214;27;20031;-86
2022/09/27 04:00:42;;;;;;;26.27;15.23;;;;;;;15.64;100.00;96458.75;5103240;27;20027;-87
2022/09/27 04:03:08;;;;;;;25.95;15.32;;;;;;;15.53;100.00;96423.94;5118334;27;20026;-87
2022/09/27 04:05:34;;;;;;;25.35;14.77;;;;;;;15.61;100.00;96455.50;5102480;27;20035;-87
2022/09/27 04:07:59;;;;;;;22.20;12.80;;;;;;;15.60;100.00;96459.19;5101413;27;20051;-87
2022/09/27 04:10:25;;;;;;;22.50;13.05;;;;;;;15.53;100.00;96450.91;5099120;27;20028;-85
2022/09/27 04:12:51;;;;;;;31.60;17.48;;;;;;;15.44;100.00;96451.75;5100868;27;20494;-86
2022/09/27 04:15:16;;;;;;;27.42;15.38;;;;;;;15.55;100.00;96456.97;5117877;27;20019;-87
2022/09/27 04:17:42;;;;;;;25.92;14.63;;;;;;;15.62;100.00;96474.25;5097200;27;20458;-79
2022/09/27 04:20:09;;;;;;;26.58;14.07;;;;;;;15.67;100.00;96477.31;5112772;27;20022;-77
2022/09/27 04:22:38;;;;;;;21.45;13.38;;;;;;;15.66;100.00;96475.63;5098754;27;20056;-79
2022/09/27 04:25:04;;;;;;;26.48;15.68;;;;;;;15.64;100.00;96480.31;5115561;27;20033;-79
2022/09/27 04:27:30;;;;;;;32.70;16.95;;;;;;;15.66;100.00;96489.09;5115555;27;20120;-78
2022/09/27 04:29:56;;;;;;;24.58;14.70;;;;;;;15.65;100.00;96476.63;5098316;27;20063;-79
2022/09/27 04:32:21;;;;;;;23.23;14.20;;;;;;;15.60;100.00;96461.91;5098307;27;20084;-78
2022/09/27 04:37:31;;;;;;;21.02;13.55;;;;;;;15.57;100.00;96473.84;5118425;27;20038;-78
2022/09/27 04:39:57;;;;;;;21.08;13.55;;;;;;;15.59;100.00;96479.09;5116303;27;20023;-79
2022/09/27 04:42:23;;;;;;;21.88;14.27;;;;;;;15.62;100.00;96478.78;5098582;27;20474;-79
2022/09/27 04:44:48;;;;;;;19.65;13.60;;;;;;;15.62;100.00;96482.34;5098034;27;20037;-78
2022/09/27 04:47:14;;;;;;;21.33;12.77;;;;;;;15.49;100.00;96478.28;5097755;27;20492;-80
2022/09/27 04:49:39;;;;;;;20.05;13.25;;;;;;;15.59;100.00;96481.78;5115078;27;20031;-79
2022/09/27 04:52:05;;;;;;;20.40;13.68;;;;;;;15.67;100.00;96482.72;5115111;27;20519;-78
2022/09/27 04:54:31;;;;;;;22.98;13.82;;;;;;;15.68;100.00;96479.03;5097683;27;20027;-78
2022/09/27 04:56:57;;;;;;;21.13;12.80;;;;;;;15.61;100.00;96485.16;5114772;27;20038;-78
2022/09/27 04:59:22;;;;;;;26.02;16.08;;;;;;;15.61;100.00;96469.84;5113513;27;20049;-78
2022/09/27 05:01:49;;;;;;;21.23;13.55;;;;;;;15.69;100.00;96478.00;5114667;27;20038;-78
2022/09/27 05:04:15;;;;;;;22.65;12.63;;;;;;;15.71;100.00;96467.09;5097490;27;20064;-78
2022/09/27 05:06:40;;;;;;;18.02;11.18;;;;;;;15.67;100.00;96463.84;5097647;27;20015;-78
2022/09/27 05:09:06;;;;;;;18.10;12.00;;;;;;;15.79;100.00;96471.69;5114256;27;20421;-79
2022/09/27 05:11:31;;;;;;;21.60;12.55;;;;;;;15.71;100.00;96470.63;5114159;27;20343;-79
2022/09/27 05:13:57;;;;;;;19.50;12.68;;;;;;;15.79;100.00;96469.00;5096986;27;20023;-80
2022/09/27 05:16:23;;;;;;;25.10;14.57;;;;;;;15.85;100.00;96476.47;5096679;27;20026;-80
2022/09/27 05:18:49;;;;;;;21.52;12.02;;;;;;;15.92;100.00;96480.25;5114060;27;20141;-79
2022/09/27 05:21:15;;;;;;;22.50;13.20;;;;;;;15.96;100.00;96484.34;5097007;27;20109;-79
2022/09/27 05:23:40;;;;;;;24.88;13.77;;;;;;;16.01;100.00;96473.94;5097125;27;20466;-80
2022/09/27 05:26:06;;;;;;;33.17;17.92;;;;;;;16.02;100.00;96483.72;5097037;27;20027;-79
2022/09/27 05:28:33;;;;;;;18.23;12.25;;;;;;;16.06;100.00;96477.00;5113644;27;20134;-80
2022/09/27 05:31:00;;;;;;;17.10;11.35;;;;;;;16.09;100.00;96464.06;5113617;27;20019;-80
2022/09/27 05:33:26;;;;;;;31.35;15.77;;;;;;;16.12;100.00;96460.19;5113229;27;20172;-79
2022/09/27 05:35:56;;;;;;;28.02;15.02;;;;;;;16.15;100.00;96468.00;5096504;27;20031;-80
2022/09/27 05:38:22;;;;;;;17.90;11.93;;;;;;;16.13;100.00;96456.50;5113330;27;20034;-79
2022/09/27 05:40:49;;;;;;;23.45;15.07;;;;;;;16.07;100.00;96436.41;5113553;27;20034;-79
2022/09/27 05:43:19;;;;;;;25.15;15.80;;;;;;;16.17;100.00;96441.72;5096828;27;20045;-79
2022/09/27 05:45:44;;;;;;;58.40;25.45;;;;;;;16.20;100.00;96423.38;5113622;27;20094;-79
2022/09/27 05:48:11;;;;;;;35.03;18.38;;;;;;;16.26;100.00;96417.34;5096487;27;20569;-80
2022/09/27 05:50:37;;;;;;;26.88;14.65;;;;;;;16.42;100.00;96430.09;5113540;27;20460;-79
2022/09/27 05:53:03;;;;;;;27.63;14.07;;;;;;;16.39;100.00;96425.03;5113383;27;20027;-79
2022/09/27 05:55:29;;;;;;;25.67;14.73;;;;;;;16.37;100.00;96410.81;5113206;27;20060;-80
2022/09/27 05:57:56;;;;;;;22.38;14.27;;;;;;;16.39;100.00;96416.91;5096752;27;20083;-79
2022/09/27 06:00:24;;;;;;;16.38;11.43;;;;;;;16.47;100.00;96408.88;5096265;27;20031;-80
2022/09/27 06:02:58;;;;;;;25.20;14.75;;;;;;;16.62;100.00;96418.09;5096683;27;20098;-79
2022/09/27 06:05:25;;;;;;;26.30;15.00;;;;;;;16.57;100.00;96401.53;5113198;27;20110;-79
2022/09/27 06:07:51;;;;;;;22.63;14.00;;;;;;;16.65;100.00;96403.44;5096492;27;20027;-79
2022/09/27 06:10:18;;;;;;;23.15;13.40;;;;;;;16.68;100.00;96411.22;5113108;27;20448;-80
2022/09/27 06:12:45;;;;;;;24.58;11.93;;;;;;;16.67;100.00;96410.34;5113133;27;20027;-79
2022/09/27 06:15:11;;;;;;;18.60;11.48;;;;;;;16.72;100.00;96404.50;5096258;27;20039;-80
2022/09/27 06:17:36;;;;;;;21.23;13.68;;;;;;;16.71;100.00;96411.72;5113317;27;20050;-79
2022/09/27 06:20:03;;;;;;;22.80;13.52;;;;;;;16.70;100.00;96399.22;5113501;28;20537;-79
2022/09/27 06:22:29;;;;;;;23.48;13.45;;;;;;;16.65;100.00;96404.28;5096162;27;20027;-79
2022/09/27 06:24:54;;;;;;;19.35;11.55;;;;;;;16.67;100.00;96394.16;5096098;28;20026;-79
2022/09/27 06:27:20;;;;;;;20.55;12.73;;;;;;;16.62;100.00;96396.50;5113088;27;20035;-79
2022/09/27 06:29:45;;;;;;;18.90;11.18;;;;;;;16.55;100.00;96379.25;5094543;28;20510;-79
2022/09/27 06:32:12;;;;;;;17.20;11.25;;;;;;;16.63;100.00;96398.19;5096140;28;20042;-79
2022/09/27 06:34:38;;;;;;;14.93;10.48;;;;;;;16.62;100.00;96383.00;5112624;28;20028;-80
2022/09/27 06:37:03;;;;;;;18.13;10.52;;;;;;;16.68;100.00;96378.81;5113100;28;20019;-78
2022/09/27 06:39:32;;;;;;;18.15;10.15;;;;;;;16.74;100.00;96381.72;5113469;28;20379;-79
2022/09/27 06:41:58;;;;;;;18.48;11.75;;;;;;;16.84;100.00;96380.75;5096130;28;20026;-78
2022/09/27 06:44:24;;;;;;;20.42;12.55;;;;;;;16.88;100.00;96363.22;5113316;28;20023;-79
2022/09/27 06:46:54;;;;;;;24.27;14.52;;;;;;;16.95;100.00;96359.69;5095922;28;20490;-78
2022/09/27 06:49:21;;;;;;;16.95;7.55;;;;;;;17.11;100.00;96340.81;5113473;28;20081;-78
2022/09/27 06:51:47;;;;;;;11.07;4.20;;;;;;;17.26;100.00;96335.63;5112762;28;20370;-78
2022/09/27 06:54:13;;;;;;;19.67;8.52;;;;;;;17.53;100.00;96340.75;5112926;28;20023;-78
2022/09/27 06:56:38;;;;;;;12.52;6.47;;;;;;;17.56;100.00;96332.34;5112566;28;20460;-79
2022/09/27 07:01:51;;;;;;;8.00;6.03;;;;;;;17.79;100.00;96303.59;5115523;28;20485;-79
2022/09/27 07:04:17;;;;;;;6.63;5.05;;;;;;;17.81;100.00;96287.22;5113680;28;20015;-79
2022/09/27 07:06:43;;;;;;;6.60;5.07;;;;;;;17.95;100.00;96294.63;5113146;28;20471;-79
2022/09/27 07:09:09;;;;;;;11.45;4.85;;;;;;;18.03;100.00;96297.31;5112632;28;20102;-79
2022/09/27 07:11:37;;;;;;;7.75;5.80;;;;;;;17.96;100.00;96314.41;5096061;28;20059;-78
2022/09/27 07:14:03;;;;;;;8.68;5.85;;;;;;;17.98;100.00;96301.53;5096073;28;20398;-80
2022/09/27 07:16:30;;;;;;;17.23;7.82;;;;;;;18.13;100.00;96314.22;5112921;28;20019;-79
2022/09/27 07:18:56;;;;;;;12.00;6.15;;;;;;;18.12;100.00;96306.28;5112594;28;20027;-79
2022/09/27 07:21:22;;;;;;;48.85;17.85;;;;;;;18.02;100.00;96305.59;5112850;28;20061;-79
2022/09/27 07:23:48;;;;;;;5.13;3.33;;;;;;;18.07;100.00;96268.88;5115309;27;20015;-80
2022/09/27 07:26:14;;;;;;;4.30;3.35;;;;;;;18.38;100.00;96263.56;5116725;27;20065;-79
2022/09/27 07:28:40;;;;;;;4.80;4.00;;;;;;;18.44;100.00;96281.81;5099300;27;20510;-79
2022/09/27 07:31:07;;;;;;;5.65;4.25;;;;;;;18.40;100.00;96284.03;5116394;27;20023;-79
2022/09/27 07:33:34;;;;;;;6.80;4.28;;;;;;;18.35;100.00;96297.25;5099557;27;20027;-79
2022/09/27 07:36:00;;;;;;;8.98;5.43;;;;;;;18.36;100.00;96298.09;5099781;27;20471;-79
2022/09/27 07:38:26;;;;;;;10.68;5.97;;;;;;;18.19;100.00;96293.72;5116442;27;20523;-79
2022/09/27 07:40:51;;;;;;;10.93;6.40;;;;;;;18.36;100.00;96325.16;5099428;27;20030;-80
2022/09/27 07:43:18;;;;;;;9.13;6.07;;;;;;;18.37;100.00;96321.44;5116297;27;20493;-79
2022/09/27 07:45:44;;;;;;;8.27;5.45;;;;;;;18.37;100.00;96324.13;5116731;27;20410;-79
2022/09/27 07:48:13;;;;;;;11.20;6.00;;;;;;;18.38;100.00;96333.94;5099119;27;20015;-79
2022/09/27 07:50:39;;;;;;;20.20;12.35;;;;;;;18.52;100.00;96338.69;5116084;27;20027;-79
2022/09/27 07:53:05;;;;;;;7.55;4.95;;;;;;;18.45;100.00;96321.44;5115905;27;20034;-79
2022/09/27 07:55:31;;;;;;;7.82;4.22;;;;;;;18.46;100.00;96292.47;5116073;27;20037;-79
2022/09/27 07:58:08;;;;;;;5.43;4.40;;;;;;;18.75;100.00;96290.03;5099259;27;20019;-78
2022/09/27 08:00:34;;;;;;;7.00;4.53;;;;;;;19.10;100.00;96281.38;5116140;27;20025;-80
2022/09/27 08:03:07;;;;;;;4.70;3.75;;;;;;;19.55;100.00;96272.44;5099058;27;20030;-79
2022/09/27 08:05:35;;;;;;;5.38;4.32;;;;;;;19.90;100.00;96277.22;5115887;27;20444;-78
2022/09/27 08:08:01;;;;;;;5.65;3.60;;;;;;;19.78;100.00;96253.44;5098720;27;20482;-78
2022/09/27 08:10:30;;;;;;;5.53;4.00;;;;;;;19.52;100.00;96248.38;5099030;27;20034;-79
2022/09/27 08:12:57;;;;;;;5.50;3.33;;;;;;;19.45;100.00;96233.88;5099094;27;20088;-79
2022/09/27 08:15:23;;;;;;;8.15;4.68;;;;;;;19.52;100.00;96234.81;5098929;27;20027;-79
2022/09/27 08:17:49;;;;;;;4.32;3.50;;;;;;;19.77;100.00;96220.03;5116402;27;20403;-80
2022/09/27 08:20:15;;;;;;;6.22;3.97;;;;;;;19.98;100.00;96214.72;5098790;27;20402;-79
2022/09/27 08:22:42;;;;;;;5.47;3.53;;;;;;;20.00;100.00;96198.22;5098901;27;20023;-79
2022/09/27 08:25:08;;;;;;;4.40;3.50;;;;;;;19.92;100.00;96195.63;5098498;27;20599;-79
2022/09/27 08:27:34;;;;;;;5.40;4.07;;;;;;;19.95;100.00;96185.22;5115378;27;20023;-79
2022/09/27 08:29:59;;;;;;;5.53;4.03;;;;;;;19.99;100.00;96186.53;5095120;28;20081;-79
2022/09/27 08:32:26;;;;;;;4.78;3.40;;;;;;;20.02;100.00;96185.34;5097057;28;20019;-80
2022/09/27 08:34:52;;;;;;;5.75;4.00;;;;;;;20.18;100.00;96187.84;5107906;27;20130;-80
2022/09/27 08:37:18;;;;;;;5.45;3.67;;;;;;;20.24;100.00;96194.41;5086577;28;20125;-80
2022/09/27 08:39:43;;;;;;;6.72;3.33;;;;;;;20.23;100.00;96181.84;5103367;28;20023;-80
2022/09/27 08:42:23;;;;;;;4.50;3.75;;;;;;;20.29;98.69;96159.41;5102448;28;20041;-80
2022/09/27 08:45:01;;;;;;;6.38;3.25;;;;;;;20.43;98.96;96166.69;5102753;28;20164;-80
2022/09/27 08:47:34;;;;;;;3.95;3.38;;;;;;;20.43;99.88;96155.81;5111378;28;20031;-80
2022/09/27 08:50:21;;;;;;;4.30;3.42;;;;;;;20.63;97.53;96170.50;5112611;28;20156;-80
2022/09/27 08:53:21;;;;;;;3.97;3.05;;;;;;;20.98;95.39;96144.31;5112672;28;20395;-80
2022/09/27 08:55:49;;;;;;;5.50;3.40;;;;;;;21.42;100.00;96152.31;5107170;28;20040;-80
2022/09/27 08:58:38;;;;;;;4.93;3.50;;;;;;;22.57;100.00;96186.22;5094250;28;20375;-79
2022/09/27 09:01:09;;;;;;;2.60;2.40;;;;;;;23.19;83.74;96156.03;5079679;28;20430;-80
2022/09/27 09:03:38;;;;;;;4.65;3.30;;;;;;;23.35;80.42;96152.88;5102626;28;20563;-79
2022/09/27 09:06:23;;;;;;;3.97;2.90;;;;;;;23.35;80.22;96161.06;5104772;28;20372;-79
2022/09/27 09:09:10;;;;;;;3.42;2.72;;;;;;;23.25;81.12;96141.56;5125885;27;20061;-79
2022/09/27 09:14:55;;;;;;;2.40;2.20;;;;;;;23.57;76.41;96129.00;5112502;28;20041;-80
2022/09/27 09:18:08;;;;;;;2.88;2.58;;;;;;;23.61;77.92;96133.00;5112616;28;20073;-81
2022/09/27 09:20:49;;;;;;;3.38;2.45;;;;;;;23.56;75.53;96121.88;5049632;28;20035;-80
2022/09/27 09:23:17;;;;;;;3.88;2.53;;;;;;;23.41;76.02;96116.59;5110758;28;20020;-80
2022/09/27 09:25:55;;;;;;;2.80;2.35;;;;;;;23.10;75.73;96122.63;5103696;28;20023;-80
2022/09/27 09:28:53;;;;;;;3.67;2.83;;;;;;;22.82;77.36;96115.66;5118006;27;20418;-80
2022/09/27 09:31:41;;;;;;;4.28;3.30;;;;;;;23.03;79.99;96131.88;5119089;27;20034;-80
2022/09/27 09:34:18;;;;;;;3.72;2.80;;;;;;;23.03;76.71;96121.81;5109898;27;20031;-80
2022/09/27 09:36:55;;;;;;;3.10;2.38;;;;;;;23.02;75.34;96125.56;5113802;27;20398;-80
2022/09/27 09:39:29;;;;;;;4.63;2.60;;;;;;;22.91;77.22;96128.06;5132071;27;20022;-81
2022/09/27 09:42:12;;;;;;;4.18;2.75;;;;;;;22.68;77.97;96133.84;5114022;27;20498;-81
2022/09/27 09:44:44;;;;;;;3.80;2.78;;;;;;;22.39;78.37;96124.09;5111168;27;20019;-81
2022/09/27 09:47:19;;;;;;;5.28;2.78;;;;;;;22.35;78.76;96132.84;5132421;27;20027;-81
2022/09/27 09:49:47;;;;;;;4.10;2.97;;;;;;;22.46;80.38;96127.66;5113692;27;20030;-81
2022/09/27 09:52:18;;;;;;;3.17;2.83;;;;;;;23.07;77.40;96127.69;5114004;27;20023;-81
2022/09/27 09:54:57;;;;;;;3.88;2.90;;;;;;;23.75;75.06;96127.31;5111395;27;20061;-81
2022/09/27 09:57:27;;;;;;;3.83;3.10;;;;;;;24.38;72.05;96127.63;5114055;27;20019;-82
2022/09/27 10:00:15;;;;;;;5.65;4.45;;;;;;;24.84;69.02;96113.78;5097073;27;20513;-82
2022/09/27 10:02:46;;;;;;;5.10;3.55;;;;;;;25.15;69.68;96113.81;5097087;27;20034;-82
2022/09/27 10:05:18;;;;;;;3.80;2.70;;;;;;;25.52;65.52;96103.03;5114336;27;20027;-81
2022/09/27 10:07:43;;;;;;;;;;;;;;;25.81;66.90;96119.63;5094827;27;20019;-81
2022/09/27 10:10:13;;;;;;;4.07;3.38;;;;;;;26.56;65.08;96116.75;5114218;27;19911;-81
2022/09/27 10:12:39;;;;;;;3.53;2.85;;;;;;;26.58;60.77;96082.53;5113509;27;20027;-81
2022/09/27 10:15:05;;;;;;;4.38;3.10;;;;;;;26.29;62.06;96075.94;5113820;27;20019;-81
2022/09/27 10:17:38;;;;;;;4.78;3.20;;;;;;;26.51;63.12;96101.00;5113501;27;20026;-82
2022/09/27 10:20:05;;;;;;;5.80;3.15;;;;;;;26.34;60.02;96081.56;5113458;27;20026;-81
2022/09/27 10:22:45;;;;;;;3.83;3.28;;;;;;;25.71;67.29;96099.28;5113833;27;20471;-81
2022/09/27 10:25:11;;;;;;;7.85;4.43;;;;;;;25.90;68.02;96101.00;5088747;27;20087;-80
2022/09/27 10:27:44;;;;;;;6.00;3.20;;;;;;;25.77;62.92;96069.09;5096823;27;20102;-80
2022/09/27 10:30:28;;;;;;;4.15;3.65;;;;;;;25.57;64.70;96075.78;5076408;28;20130;-81
2022/09/27 10:32:57;;;;;;;3.45;3.00;;;;;;;25.24;71.94;96101.53;5093487;28;20366;-80
2022/09/27 10:35:29;;;;;;;4.43;3.22;;;;;;;24.99;73.04;96097.06;5093760;28;20487;-80
2022/09/27 10:38:21;;;;;;;3.47;3.00;;;;;;;25.06;74.54;96095.97;5133377;27;20034;-81
2022/09/27 10:40:51;;;;;;;4.25;3.58;;;;;;;24.93;74.61;96087.84;5102404;28;20016;-81
2022/09/27 10:43:35;;;;;;;5.57;4.05;;;;;;;25.02;76.35;96092.00;5075874;28;20023;-81
2022/09/27 10:46:11;;;;;;;5.00;3.42;;;;;;;24.85;76.03;96079.91;5084890;28;20027;-81
2022/09/27 10:48:38;;;;;;;4.00;3.60;;;;;;;24.95;75.28;96080.25;5106622;28;20100;-81
2022/09/27 10:51:06;;;;;;;4.25;3.50;;;;;;;25.04;72.86;96064.41;5092628;28;20031;-81
2022/09/27 10:53:35;;;;;;;4.88;3.22;;;;;;;24.88;75.10;96090.41;5084846;28;20027;-82
2022/09/27 10:56:01;;;;;;;3.92;3.40;;;;;;;25.48;72.89;96079.84;5112881;28;20053;-81
2022/09/27 10:58:27;;;;;;;5.50;3.42;;;;;;;25.49;73.45;96087.03;5115292;27;20483;-81
2022/09/27 11:01:04;;;;;;;3.50;3.20;;;;;;;26.84;69.47;96073.97;5094175;28;20039;-81
2022/09/27 11:03:32;;;;;;;4.75;2.95;;;;;;;28.78;61.06;96072.94;5114805;27;20080;-82
2022/09/27 11:05:58;;;;;;;3.78;3.10;;;;;;;29.52;58.71;96069.94;5105340;28;20074;-81
2022/09/27 11:08:30;;;;;;;3.22;2.90;;;;;;;29.46;59.09;96062.69;5089772;28;20503;-81
2022/09/27 11:11:07;;;;;;;4.28;3.38;;;;;;;29.09;57.24;96049.56;5082738;28;20050;-82
2022/09/27 11:13:34;;;;;;;13.40;3.67;;;;;;;27.65;60.79;96050.56;5104852;28;20023;-81
2022/09/27 11:16:21;;;;;;;3.42;3.00;;;;;;;26.85;63.50;96055.63;5104919;28;20390;-82
2022/09/27 11:19:12;;;;;;;3.33;3.03;;;;;;;26.18;64.47;96045.72;5133363;27;20110;-83
2022/09/27 11:22:07;;;;;;;4.43;3.42;;;;;;;26.30;66.12;96065.81;5147628;27;20027;-81
2022/09/27 11:24:36;;;;;;;6.53;3.42;;;;;;;25.98;67.96;96053.28;5095946;28;20088;-82
2022/09/27 11:27:30;;;;;;;5.78;4.10;;;;;;;25.21;71.01;96044.50;5130001;27;20032;-82
2022/09/27 11:30:09;;;;;;;6.22;3.83;;;;;;;25.28;73.06;96058.13;5111276;28;20378;-83
2022/09/27 11:32:57;;;;;;;4.18;3.75;;;;;;;25.37;72.75;96055.94;5112098;28;20028;-82
2022/09/27 11:35:43;;;;;;;5.70;3.30;;;;;;;25.62;70.25;96040.38;5079703;28;20039;-81
2022/09/27 11:38:29;;;;;;;8.45;4.05;;;;;;;26.29;69.96;96061.38;5130285;27;20471;-81
2022/09/27 11:41:13;;;;;;;7.28;3.95;;;;;;;26.25;69.86;96047.28;5090262;28;20031;-82
2022/09/27 11:43:45;;;;;;;8.18;4.55;;;;;;;26.54;69.90;96053.06;5123868;27;20053;-82
2022/09/27 11:46:17;;;;;;;7.22;4.72;;;;;;;26.50;69.64;96046.34;5127014;27;20028;-82